Time;durP1;ratioP1;P1;durP2;ratioP2;P2;SDS_P1;SDS_P2;PMS_P1;PMS_P2;Temp;Humidity;BMP_temperature;BMP_pressure;BME280_temperature;BME280_humidity;BME280_pressure;Samples;Min_cycle;Max_cycle;Signal;HPM_P1;HPM_P2
2022/05/10 00:00:19;;;;;;;2.35;1.70;;;23.80;47.90;;;;;;5019916;28;20029;-67
2022/05/10 00:02:52;;;;;;;2.10;1.60;;;23.70;47.90;;;;;;5019722;28;20037;-69
2022/05/10 00:05:25;;;;;;;2.10;1.65;;;23.80;47.90;;;;;;4999427;28;20053;-63
2022/05/10 00:07:51;;;;;;;2.28;1.60;;;23.70;47.80;;;;;;5022110;28;20032;-64
2022/05/10 00:10:17;;;;;;;1.95;1.70;;;23.70;47.80;;;;;;5017506;28;20037;-65
2022/05/10 00:12:43;;;;;;;1.83;1.35;;;23.70;47.80;;;;;;5019605;28;20112;-67
2022/05/10 00:15:09;;;;;;;2.40;1.60;;;23.70;47.80;;;;;;5011817;28;20198;-67
2022/05/10 00:17:38;;;;;;;2.30;1.73;;;23.70;47.80;;;;;;5020737;28;20143;-67
2022/05/10 00:20:06;;;;;;;2.67;1.80;;;23.70;47.80;;;;;;5016463;28;20116;-63
2022/05/10 00:22:32;;;;;;;2.25;1.88;;;23.70;47.80;;;;;;5018752;28;20041;-68
2022/05/10 00:24:59;;;;;;;2.13;1.70;;;23.70;47.90;;;;;;4999126;28;20041;-67
2022/05/10 00:27:24;;;;;;;2.83;1.70;;;23.70;47.90;;;;;;5021464;28;20091;-69
2022/05/10 00:29:50;;;;;;;2.10;1.80;;;23.70;47.80;;;;;;5018739;28;20490;-68
2022/05/10 00:32:16;;;;;;;2.60;1.70;;;23.70;47.90;;;;;;5017337;28;20037;-64
2022/05/10 00:34:43;;;;;;;2.13;1.60;;;23.70;47.90;;;;;;5017608;28;20025;-68
2022/05/10 00:37:10;;;;;;;2.10;1.70;;;23.70;47.80;;;;;;5018100;28;20018;-68
2022/05/10 00:39:37;;;;;;;2.08;1.77;;;23.70;47.80;;;;;;5016881;28;20561;-67
2022/05/10 00:42:13;;;;;;;2.08;1.70;;;23.70;47.80;;;;;;5022416;28;20025;-67
2022/05/10 00:45:08;;;;;;;2.20;1.75;;;23.70;47.80;;;;;;5023135;28;20422;-67
2022/05/10 00:47:48;;;;;;;2.03;1.77;;;23.70;47.80;;;;;;5022319;28;20049;-69
2022/05/10 00:50:36;;;;;;;2.28;1.77;;;23.60;47.80;;;;;;5021601;28;20030;-68
2022/05/10 00:53:26;;;;;;;2.08;1.70;;;23.60;47.80;;;;;;5023499;28;20056;-68
2022/05/10 00:55:57;;;;;;;2.17;1.70;;;23.60;47.80;;;;;;5022091;28;20434;-68
2022/05/10 00:58:44;;;;;;;2.40;1.83;;;23.60;47.80;;;;;;5023536;28;20124;-67
2022/05/10 01:01:16;;;;;;;2.25;1.90;;;23.60;47.80;;;;;;5026352;28;20037;-68
2022/05/10 01:04:27;;;;;;;2.30;1.70;;;23.60;47.90;;;;;;5020107;28;20033;-67
2022/05/10 01:07:22;;;;;;;1.83;1.60;;;23.60;47.90;;;;;;5015593;28;20088;-68
2022/05/10 01:09:57;;;;;;;2.50;1.70;;;23.60;47.80;;;;;;5020340;28;20124;-67
2022/05/10 01:12:36;;;;;;;2.25;1.80;;;23.60;47.80;;;;;;5021414;28;20033;-63
2022/05/10 01:15:26;;;;;;;2.53;1.83;;;23.60;47.90;;;;;;5025687;28;20104;-67
2022/05/10 01:17:57;;;;;;;2.45;1.90;;;23.60;47.80;;;;;;5011603;28;20041;-67
2022/05/10 01:20:30;;;;;;;2.30;1.70;;;23.60;47.80;;;;;;5022974;28;20022;-69
2022/05/10 01:23:20;;;;;;;2.38;1.70;;;23.60;47.80;;;;;;5023496;28;20052;-67
2022/05/10 01:26:14;;;;;;;2.22;1.65;;;23.50;47.80;;;;;;5021505;28;20033;-67
2022/05/10 01:28:48;;;;;;;2.10;1.60;;;23.60;47.80;;;;;;5022947;28;20060;-67
2022/05/10 01:31:21;;;;;;;2.17;1.70;;;23.50;47.80;;;;;;5019728;28;20061;-68
2022/05/10 01:34:09;;;;;;;2.30;1.70;;;23.50;47.80;;;;;;5021711;28;20104;-66
2022/05/10 01:36:51;;;;;;;2.37;1.70;;;23.50;47.80;;;;;;5002637;28;20041;-63
2022/05/10 01:39:24;;;;;;;2.28;1.60;;;23.50;47.80;;;;;;5023762;28;20279;-68
2022/05/10 01:41:56;;;;;;;2.22;1.60;;;23.50;47.80;;;;;;5024168;28;20029;-67
2022/05/10 01:44:30;;;;;;;2.13;1.60;;;23.50;47.80;;;;;;5025554;28;20030;-67
2022/05/10 01:47:18;;;;;;;1.92;1.60;;;23.50;47.80;;;;;;5030065;28;20025;-68
2022/05/10 01:49:52;;;;;;;2.25;1.70;;;23.50;47.80;;;;;;5019930;28;20029;-67
2022/05/10 01:52:22;;;;;;;2.63;1.58;;;23.50;47.80;;;;;;5018903;28;20446;-68
2022/05/10 01:54:58;;;;;;;1.77;1.55;;;23.50;47.80;;;;;;5021736;28;20033;-66
2022/05/10 01:57:25;;;;;;;1.80;1.52;;;23.50;47.80;;;;;;5024686;28;20139;-67
2022/05/10 01:59:57;;;;;;;1.60;1.42;;;23.40;47.80;;;;;;5023237;28;20044;-67
2022/05/10 02:02:25;;;;;;;1.80;1.60;;;23.40;47.70;;;;;;5020417;28;20403;-67
2022/05/10 02:04:55;;;;;;;1.80;1.40;;;23.40;47.80;;;;;;5020425;28;20067;-64
2022/05/10 02:07:22;;;;;;;;;;;23.40;47.70;;;;;;5022774;28;20041;-67
2022/05/10 02:09:59;;;;;;;2.40;1.90;;;23.40;47.70;;;;;;5019594;28;19913;-67
2022/05/10 02:12:37;;;;;;;1.67;1.38;;;23.40;47.70;;;;;;5011694;28;20073;-62
2022/05/10 02:15:06;;;;;;;3.97;1.80;;;23.40;47.70;;;;;;5022727;28;20444;-68
2022/05/10 02:17:38;;;;;;;2.25;1.70;;;23.40;47.80;;;;;;5016998;28;20485;-67
2022/05/10 02:20:30;;;;;;;2.00;1.55;;;23.40;47.80;;;;;;5020612;28;20461;-63
2022/05/10 02:23:02;;;;;;;1.77;1.55;;;23.40;47.80;;;;;;4999435;28;20124;-66
2022/05/10 02:25:34;;;;;;;2.20;1.60;;;23.40;47.80;;;;;;5024038;28;20087;-67
2022/05/10 02:28:23;;;;;;;2.17;1.52;;;23.40;47.80;;;;;;5022646;28;20037;-67
2022/05/10 02:30:53;;;;;;;1.88;1.48;;;23.40;47.80;;;;;;5010624;28;20041;-62
2022/05/10 02:33:19;;;;;;;1.90;1.60;;;23.40;47.80;;;;;;5022778;28;20021;-62
2022/05/10 02:35:54;;;;;;;2.10;1.63;;;23.40;47.80;;;;;;5020363;28;20025;-67
2022/05/10 02:38:22;;;;;;;2.00;1.60;;;23.40;47.80;;;;;;5022744;28;20037;-68
2022/05/10 02:40:51;;;;;;;1.75;1.50;;;23.40;47.80;;;;;;5021312;28;20029;-68
2022/05/10 02:43:23;;;;;;;2.03;1.60;;;23.30;47.70;;;;;;5021472;28;20123;-63
2022/05/10 02:45:50;;;;;;;1.90;1.42;;;23.40;47.80;;;;;;5022380;28;20116;-67
2022/05/10 02:48:33;;;;;;;1.90;1.60;;;23.40;47.80;;;;;;5020731;28;20033;-67
2022/05/10 02:50:59;;;;;;;2.20;1.60;;;23.40;47.80;;;;;;5011401;28;20060;-63
2022/05/10 02:53:26;;;;;;;1.98;1.60;;;23.30;47.70;;;;;;5023259;28;20543;-67
2022/05/10 02:56:03;;;;;;;2.55;1.70;;;23.30;47.70;;;;;;5022612;28;20069;-62
2022/05/10 02:58:50;;;;;;;2.28;1.63;;;23.30;47.80;;;;;;5021171;28;20430;-68
2022/05/10 03:01:18;;;;;;;1.75;1.52;;;23.30;47.70;;;;;;5021777;28;20044;-67
2022/05/10 03:03:44;;;;;;;2.20;1.75;;;23.40;47.80;;;;;;5012162;28;20052;-67
2022/05/10 03:06:13;;;;;;;2.10;1.70;;;23.30;47.70;;;;;;5020360;28;20029;-68
2022/05/10 03:08:38;;;;;;;1.65;1.40;;;23.30;47.80;;;;;;5022122;28;20051;-67
2022/05/10 03:11:04;;;;;;;1.90;1.50;;;23.30;47.80;;;;;;5021388;28;20144;-67
2022/05/10 03:13:30;;;;;;;1.75;1.35;;;23.30;47.80;;;;;;5022775;28;20033;-63
2022/05/10 03:15:55;;;;;;;1.88;1.58;;;23.30;47.80;;;;;;5023180;28;20037;-67
2022/05/10 03:18:21;;;;;;;1.75;1.55;;;23.20;47.80;;;;;;5022109;28;20033;-62
2022/05/10 03:20:46;;;;;;;2.10;1.60;;;23.20;47.70;;;;;;5016963;28;20092;-67
2022/05/10 03:23:12;;;;;;;2.20;1.50;;;23.30;47.80;;;;;;5019547;28;20039;-68
2022/05/10 03:25:38;;;;;;;2.13;1.80;;;23.20;47.70;;;;;;5022678;28;20033;-63
2022/05/10 03:28:04;;;;;;;1.70;1.40;;;23.30;47.80;;;;;;5022442;28;20021;-66
2022/05/10 03:30:30;;;;;;;2.08;1.73;;;23.20;47.70;;;;;;5020599;28;20376;-67
2022/05/10 03:32:56;;;;;;;2.00;1.52;;;23.20;47.80;;;;;;5022358;28;20366;-67
2022/05/10 03:35:22;;;;;;;2.05;1.63;;;23.20;47.70;;;;;;5018685;28;20504;-67
2022/05/10 03:37:48;;;;;;;1.92;1.55;;;23.20;48.20;;;;;;5020142;28;20067;-66
2022/05/10 03:40:14;;;;;;;2.22;1.50;;;23.20;47.70;;;;;;5021414;28;20389;-66
2022/05/10 03:42:48;;;;;;;1.75;1.50;;;23.20;47.80;;;;;;5020752;28;20047;-67
2022/05/10 03:45:16;;;;;;;2.10;1.60;;;23.20;47.80;;;;;;5021490;28;20566;-68
2022/05/10 03:47:42;;;;;;;1.70;1.30;;;23.20;47.70;;;;;;5020333;28;20030;-67
2022/05/10 03:50:09;;;;;;;2.05;1.60;;;23.20;47.80;;;;;;5018116;28;20025;-61
2022/05/10 03:52:40;;;;;;;1.65;1.33;;;23.20;47.80;;;;;;5019950;28;20082;-66
2022/05/10 03:55:12;;;;;;;1.60;1.38;;;23.20;47.80;;;;;;5019759;28;20124;-67
2022/05/10 03:57:37;;;;;;;1.73;1.58;;;23.10;47.70;;;;;;5017999;28;20072;-66
2022/05/10 04:00:07;;;;;;;1.83;1.40;;;23.20;47.80;;;;;;5020438;28;20540;-66
2022/05/10 04:02:33;;;;;;;1.65;1.40;;;23.20;47.80;;;;;;5017536;28;20497;-67
2022/05/10 04:04:58;;;;;;;1.98;1.58;;;23.10;47.70;;;;;;5021150;28;20108;-67
2022/05/10 04:07:24;;;;;;;2.17;1.50;;;23.20;47.80;;;;;;5011632;28;21274;-66
2022/05/10 04:09:50;;;;;;;1.90;1.40;;;23.20;47.80;;;;;;5018985;28;20167;-66
2022/05/10 04:12:15;;;;;;;1.60;1.40;;;23.10;47.70;;;;;;5022621;28;20112;-66
2022/05/10 04:14:41;;;;;;;2.28;1.50;;;23.10;47.80;;;;;;5019078;28;20044;-66
2022/05/10 04:17:07;;;;;;;1.90;1.40;;;23.10;47.80;;;;;;5001452;28;20172;-67
2022/05/10 04:19:32;;;;;;;1.88;1.52;;;23.10;47.80;;;;;;5019305;28;20140;-66
2022/05/10 04:21:58;;;;;;;1.77;1.40;;;23.10;47.80;;;;;;5019674;28;20553;-61
2022/05/10 04:24:23;;;;;;;1.80;1.40;;;23.10;47.80;;;;;;5017925;28;20477;-66
2022/05/10 04:26:49;;;;;;;1.88;1.42;;;23.10;47.90;;;;;;5019164;28;20029;-66
2022/05/10 04:29:16;;;;;;;1.63;1.42;;;23.10;47.90;;;;;;5005509;28;20029;-62
2022/05/10 04:31:41;;;;;;;1.80;1.50;;;23.10;47.90;;;;;;5019337;28;20121;-65
2022/05/10 04:34:07;;;;;;;1.70;1.40;;;23.10;48.40;;;;;;5003763;28;20039;-66
2022/05/10 04:36:34;;;;;;;1.70;1.40;;;23.10;48.00;;;;;;5020578;28;20453;-62
2022/05/10 04:38:59;;;;;;;2.03;1.70;;;23.10;48.00;;;;;;5016449;28;21122;-65
2022/05/10 04:41:28;;;;;;;2.10;1.50;;;23.10;48.00;;;;;;5018701;28;20029;-66
2022/05/10 04:43:56;;;;;;;1.70;1.30;;;23.10;48.10;;;;;;5019772;28;20084;-67
2022/05/10 04:46:22;;;;;;;1.92;1.50;;;23.00;47.90;;;;;;5015191;28;20488;-66
2022/05/10 04:48:47;;;;;;;2.30;1.60;;;23.10;48.00;;;;;;5017320;28;20044;-67
2022/05/10 04:51:13;;;;;;;2.00;1.55;;;23.10;48.00;;;;;;5019648;28;20043;-63
2022/05/10 04:53:39;;;;;;;1.75;1.40;;;23.10;48.00;;;;;;5018186;28;20047;-61
2022/05/10 04:56:05;;;;;;;2.13;1.60;;;23.00;48.00;;;;;;5018366;28;20051;-66
2022/05/10 04:58:31;;;;;;;2.30;1.70;;;23.10;48.00;;;;;;5018346;28;20017;-63
2022/05/10 05:01:01;;;;;;;1.50;1.30;;;23.00;48.00;;;;;;5019382;28;20037;-66
2022/05/10 05:03:27;;;;;;;2.10;1.60;;;23.00;48.10;;;;;;5017871;28;20041;-62
2022/05/10 05:05:52;;;;;;;1.73;1.40;;;23.00;48.00;;;;;;5016049;28;20386;-66
2022/05/10 05:08:18;;;;;;;1.77;1.40;;;23.00;48.00;;;;;;5016000;28;20025;-66
2022/05/10 05:10:44;;;;;;;2.25;1.67;;;23.00;48.00;;;;;;5019976;28;20063;-66
2022/05/10 05:13:09;;;;;;;1.65;1.40;;;23.00;48.00;;;;;;5021433;28;20023;-61
2022/05/10 05:15:35;;;;;;;2.75;1.48;;;23.00;48.00;;;;;;5021763;28;20116;-66
2022/05/10 05:18:03;;;;;;;1.70;1.30;;;23.00;48.00;;;;;;5021476;28;20056;-66
2022/05/10 05:20:32;;;;;;;1.30;1.20;;;23.00;48.00;;;;;;5017545;28;20035;-66
2022/05/10 05:22:57;;;;;;;1.35;1.20;;;23.00;48.00;;;;;;5021688;28;20107;-66
2022/05/10 05:25:23;;;;;;;1.52;1.38;;;23.00;48.00;;;;;;5019596;28;20037;-67
2022/05/10 05:27:48;;;;;;;1.83;1.40;;;23.00;48.00;;;;;;5023102;28;20029;-66
2022/05/10 05:30:14;;;;;;;1.80;1.40;;;22.90;48.00;;;;;;5019682;28;20117;-62
2022/05/10 05:32:40;;;;;;;2.08;1.60;;;23.00;48.00;;;;;;5024735;28;20115;-62
2022/05/10 05:35:07;;;;;;;1.98;1.48;;;23.00;48.10;;;;;;5023166;28;20080;-61
2022/05/10 05:37:32;;;;;;;1.80;1.40;;;23.00;48.00;;;;;;5024982;28;20064;-66
2022/05/10 05:39:59;;;;;;;1.70;1.42;;;23.00;48.10;;;;;;5023178;28;20136;-66
2022/05/10 05:42:24;;;;;;;1.70;1.48;;;23.00;48.10;;;;;;5018704;28;20140;-66
2022/05/10 05:44:50;;;;;;;2.10;1.50;;;23.00;48.00;;;;;;5031684;28;20117;-64
2022/05/10 05:47:16;;;;;;;1.40;1.30;;;23.00;48.00;;;;;;5022986;28;20038;-66
2022/05/10 05:49:42;;;;;;;1.88;1.30;;;23.00;48.00;;;;;;5022180;28;20148;-66
2022/05/10 05:52:08;;;;;;;1.40;1.23;;;22.90;47.90;;;;;;5022514;28;20127;-66
2022/05/10 05:54:33;;;;;;;1.77;1.40;;;22.90;48.00;;;;;;5024973;28;20034;-63
2022/05/10 05:57:06;;;;;;;2.45;1.40;;;22.90;48.00;;;;;;5024928;28;20100;-66
2022/05/10 05:59:33;;;;;;;1.85;1.50;;;22.90;48.00;;;;;;5023211;28;20032;-66
2022/05/10 06:01:59;;;;;;;1.80;1.30;;;22.90;48.00;;;;;;5024465;28;20048;-66
2022/05/10 06:04:25;;;;;;;1.75;1.20;;;22.90;48.00;;;;;;5022841;28;20374;-66
2022/05/10 06:06:50;;;;;;;1.85;1.40;;;22.90;48.00;;;;;;5024569;28;20481;-67
2022/05/10 06:09:22;;;;;;;2.13;1.60;;;22.90;48.00;;;;;;5025166;28;20026;-67
2022/05/10 06:11:51;;;;;;;1.55;1.30;;;22.90;48.50;;;;;;5023553;28;20492;-65
2022/05/10 06:14:17;;;;;;;2.35;1.50;;;22.90;48.00;;;;;;5023333;28;21158;-65
2022/05/10 06:16:43;;;;;;;1.50;1.25;;;22.90;48.00;;;;;;5022402;28;20037;-66
2022/05/10 06:19:10;;;;;;;1.83;1.40;;;22.90;48.10;;;;;;5020309;28;20031;-66
2022/05/10 06:21:35;;;;;;;1.58;1.27;;;22.80;48.00;;;;;;5023861;28;20032;-66
2022/05/10 06:24:01;;;;;;;1.77;1.40;;;22.90;48.00;;;;;;5024636;28;20583;-66
2022/05/10 06:26:27;;;;;;;2.15;1.60;;;22.80;48.00;;;;;;5024941;28;20048;-66
2022/05/10 06:28:53;;;;;;;1.90;1.40;;;22.90;48.10;;;;;;5025255;28;20591;-62
2022/05/10 06:31:19;;;;;;;1.67;1.30;;;22.80;48.00;;;;;;5021921;28;20052;-66
2022/05/10 06:33:44;;;;;;;1.98;1.48;;;22.80;48.00;;;;;;5024806;28;20021;-67
2022/05/10 06:36:10;;;;;;;3.00;1.45;;;22.80;48.00;;;;;;5021774;28;20021;-66
2022/05/10 06:38:36;;;;;;;1.70;1.30;;;22.80;48.10;;;;;;5021272;28;20025;-66
2022/05/10 06:41:04;;;;;;;1.60;1.25;;;22.80;48.10;;;;;;5023595;28;20068;-66
2022/05/10 06:43:35;;;;;;;2.22;1.40;;;22.80;48.10;;;;;;5010581;28;20049;-62
2022/05/10 06:46:07;;;;;;;2.30;1.40;;;22.80;48.10;;;;;;5020535;28;20474;-67
2022/05/10 06:48:32;;;;;;;2.03;1.38;;;22.80;48.10;;;;;;5004963;28;20564;-67
2022/05/10 06:50:58;;;;;;;2.35;1.52;;;22.80;48.10;;;;;;5019131;28;20025;-65
2022/05/10 06:53:25;;;;;;;1.92;1.40;;;22.80;48.10;;;;;;5022377;28;20041;-67
2022/05/10 06:55:51;;;;;;;1.95;1.50;;;22.80;48.20;;;;;;5025585;28;20033;-66
2022/05/10 06:58:17;;;;;;;1.50;1.30;;;22.80;48.20;;;;;;5024167;28;20865;-66
2022/05/10 07:00:42;;;;;;;2.45;1.50;;;22.80;48.20;;;;;;5022145;28;20111;-66
2022/05/10 07:03:15;;;;;;;3.35;1.50;;;22.80;48.20;;;;;;5004542;28;20033;-67
2022/05/10 07:05:43;;;;;;;2.60;1.40;;;22.80;48.20;;;;;;5022325;28;20051;-64
2022/05/10 07:08:09;;;;;;;2.22;1.50;;;22.80;48.20;;;;;;5021676;28;20041;-67
2022/05/10 07:10:35;;;;;;;2.85;1.48;;;22.80;48.20;;;;;;5022795;28;20017;-67
2022/05/10 07:13:01;;;;;;;2.45;1.67;;;22.80;48.20;;;;;;5020934;28;20507;-67
2022/05/10 07:15:27;;;;;;;1.73;1.50;;;22.80;48.20;;;;;;5003313;28;20334;-62
2022/05/10 07:17:52;;;;;;;2.33;1.52;;;22.80;48.20;;;;;;5023895;28;20034;-62
2022/05/10 07:20:19;;;;;;;2.40;1.38;;;22.80;48.30;;;;;;5022808;28;20145;-66
2022/05/10 07:22:46;;;;;;;2.08;1.50;;;22.80;48.30;;;;;;5015662;28;20489;-66
2022/05/10 07:25:17;;;;;;;1.63;1.38;;;22.80;48.30;;;;;;5021556;28;20034;-63
2022/05/10 07:27:44;;;;;;;1.85;1.50;;;22.80;48.30;;;;;;5022996;28;20028;-66
2022/05/10 07:30:11;;;;;;;2.15;1.58;;;22.80;48.40;;;;;;5021679;28;20040;-66
2022/05/10 07:32:37;;;;;;;1.83;1.50;;;22.80;48.40;;;;;;5021775;28;20088;-66
2022/05/10 07:35:05;;;;;;;1.60;1.40;;;22.80;48.40;;;;;;5019149;28;20119;-62
2022/05/10 07:37:33;;;;;;;2.30;1.80;;;22.80;48.30;;;;;;5019958;28;20021;-63
2022/05/10 07:39:59;;;;;;;2.20;1.63;;;22.80;48.40;;;;;;5020502;28;20114;-66
2022/05/10 07:42:25;;;;;;;2.33;1.52;;;22.80;48.40;;;;;;5023584;28;20481;-66
2022/05/10 07:44:51;;;;;;;2.90;1.77;;;22.80;48.40;;;;;;5021793;28;20123;-67
2022/05/10 07:47:18;;;;;;;2.53;1.60;;;22.80;48.40;;;;;;5022232;28;20025;-66
2022/05/10 07:49:43;;;;;;;2.42;1.75;;;22.80;48.40;;;;;;5020962;28;20033;-66
2022/05/10 07:52:09;;;;;;;2.28;1.60;;;22.80;48.40;;;;;;5019033;28;20046;-66
2022/05/10 07:54:36;;;;;;;2.20;1.65;;;22.80;48.40;;;;;;5022246;28;20043;-66
2022/05/10 07:57:03;;;;;;;2.00;1.40;;;22.80;48.40;;;;;;5022297;28;20094;-66
2022/05/10 07:59:30;;;;;;;1.80;1.42;;;22.80;48.40;;;;;;5021744;28;20555;-64
2022/05/10 08:01:57;;;;;;;1.98;1.50;;;22.80;48.30;;;;;;5020400;28;20041;-62
2022/05/10 08:04:22;;;;;;;1.95;1.60;;;22.80;48.90;;;;;;5019796;28;20041;-66
2022/05/10 08:06:49;;;;;;;1.77;1.42;;;22.80;48.40;;;;;;5022000;28;20025;-66
2022/05/10 08:09:14;;;;;;;2.47;1.60;;;22.80;48.40;;;;;;5019663;28;20024;-63
2022/05/10 08:11:41;;;;;;;2.42;1.60;;;22.80;48.30;;;;;;5020944;28;20026;-66
2022/05/10 08:14:06;;;;;;;2.80;1.60;;;22.80;48.40;;;;;;5022299;28;20025;-66
2022/05/10 08:16:33;;;;;;;2.35;1.67;;;22.80;48.40;;;;;;5020755;28;20043;-66
2022/05/10 08:18:59;;;;;;;1.98;1.58;;;22.80;48.40;;;;;;5020765;28;20079;-66
2022/05/10 08:21:25;;;;;;;2.30;1.50;;;22.80;48.40;;;;;;5022082;28;20026;-66
2022/05/10 08:23:53;;;;;;;1.90;1.60;;;22.80;48.40;;;;;;5005028;28;21840;-65
2022/05/10 08:26:20;;;;;;;2.70;1.60;;;22.80;48.40;;;;;;5024237;28;20029;-65
2022/05/10 08:28:46;;;;;;;1.95;1.55;;;22.80;48.40;;;;;;5023923;28;20076;-65
2022/05/10 08:31:13;;;;;;;2.42;1.90;;;22.80;48.40;;;;;;5020716;28;20053;-65
2022/05/10 08:33:42;;;;;;;2.30;1.75;;;22.80;48.40;;;;;;5020960;28;20032;-65
2022/05/10 08:36:08;;;;;;;2.72;1.80;;;22.80;48.40;;;;;;5021548;28;20029;-64
2022/05/10 08:38:35;;;;;;;2.28;1.70;;;22.80;48.40;;;;;;5021243;28;20536;-65
2022/05/10 08:41:05;;;;;;;2.50;1.80;;;22.80;48.40;;;;;;5019725;28;20044;-65
2022/05/10 08:43:37;;;;;;;2.33;1.88;;;22.80;48.40;;;;;;5020929;28;20060;-65
2022/05/10 08:46:06;;;;;;;2.60;1.90;;;22.90;48.50;;;;;;5023519;28;20035;-63
2022/05/10 08:48:32;;;;;;;3.00;2.00;;;22.90;48.50;;;;;;5021772;28;20117;-64
2022/05/10 08:50:59;;;;;;;3.00;2.00;;;22.90;48.50;;;;;;5019354;28;20030;-60
2022/05/10 08:53:25;;;;;;;3.53;1.83;;;22.90;48.50;;;;;;5020794;28;20544;-65
2022/05/10 08:56:13;;;;;;;2.78;2.03;;;22.90;48.50;;;;;;5024051;28;20029;-65
2022/05/10 08:58:47;;;;;;;2.45;1.80;;;22.90;48.50;;;;;;5022814;28;20546;-65
2022/05/10 09:01:23;;;;;;;3.00;2.10;;;22.90;48.50;;;;;;5020892;28;20072;-65
2022/05/10 09:04:18;;;;;;;2.38;1.83;;;22.90;48.50;;;;;;5022342;28;20564;-65
2022/05/10 09:07:12;;;;;;;2.75;2.05;;;22.90;48.50;;;;;;5027058;28;20029;-65
2022/05/10 09:10:08;;;;;;;2.60;1.80;;;22.90;48.40;;;;;;5021751;28;20041;-65
2022/05/10 09:12:43;;;;;;;3.47;1.98;;;22.90;48.50;;;;;;5026820;28;20025;-65
2022/05/10 09:15:10;;;;;;;2.45;1.90;;;22.90;48.50;;;;;;5024261;28;20553;-65
2022/05/10 09:17:36;;;;;;;1.98;1.67;;;22.90;48.50;;;;;;5025713;28;20018;-65
2022/05/10 09:20:03;;;;;;;3.22;2.05;;;22.90;48.50;;;;;;5023353;28;20733;-62
2022/05/10 09:22:57;;;;;;;2.67;1.90;;;22.90;48.50;;;;;;5025805;28;20119;-65
2022/05/10 09:25:33;;;;;;;2.60;1.80;;;22.80;48.50;;;;;;5005015;28;20035;-65
2022/05/10 09:28:22;;;;;;;2.72;1.77;;;22.90;48.40;;;;;;5028681;28;20043;-65
2022/05/10 09:36:34;;;;;;;2.10;1.73;;;22.90;48.50;;;;;;4999707;28;20049;-65
2022/05/10 09:39:19;;;;;;;2.25;1.88;;;22.90;48.50;;;;;;5023588;28;20086;-60
2022/05/10 09:41:51;;;;;;;2.25;1.80;;;22.90;48.50;;;;;;5024295;28;20067;-65
2022/05/10 09:44:20;;;;;;;3.05;1.92;;;22.90;48.50;;;;;;5024581;28;20036;-65
2022/05/10 09:46:45;;;;;;;2.17;1.75;;;22.90;48.50;;;;;;5026081;28;20044;-66
2022/05/10 09:49:31;;;;;;;2.03;1.70;;;22.80;48.40;;;;;;5024346;28;20033;-64
2022/05/10 09:51:58;;;;;;;3.42;1.90;;;22.80;48.50;;;;;;5016960;28;20053;-60
2022/05/10 09:54:38;;;;;;;2.30;1.90;;;22.90;48.50;;;;;;5023548;28;20063;-65
2022/05/10 09:57:09;;;;;;;2.25;1.75;;;22.80;48.50;;;;;;5026883;28;20036;-63
2022/05/10 09:59:46;;;;;;;2.10;1.80;;;22.90;48.50;;;;;;5024543;28;20033;-63
2022/05/10 10:02:25;;;;;;;2.70;1.92;;;22.90;48.50;;;;;;5024075;28;20553;-64
2022/05/10 10:04:51;;;;;;;2.63;1.90;;;22.90;48.50;;;;;;5024627;28;20136;-65
2022/05/10 10:07:16;;;;;;;2.25;1.70;;;22.90;48.50;;;;;;5022415;28;20107;-65
2022/05/10 10:09:51;;;;;;;3.30;1.70;;;22.90;48.50;;;;;;5023489;28;20469;-63
2022/05/10 10:12:37;;;;;;;2.75;1.92;;;22.80;48.50;;;;;;5022244;28;20553;-65
2022/05/10 10:15:20;;;;;;;2.40;1.80;;;22.90;48.50;;;;;;5025903;28;20097;-65
2022/05/10 10:17:53;;;;;;;2.03;1.65;;;22.80;48.40;;;;;;5023249;28;20034;-61
2022/05/10 10:20:35;;;;;;;3.20;1.95;;;22.90;48.50;;;;;;5018557;28;20025;-60
2022/05/10 10:23:07;;;;;;;2.10;1.73;;;22.90;48.50;;;;;;5014658;28;20030;-65
2022/05/10 10:25:43;;;;;;;2.35;1.70;;;22.80;48.40;;;;;;5023842;28;20032;-66
2022/05/10 10:28:29;;;;;;;2.88;1.73;;;22.90;48.50;;;;;;5014706;28;20115;-61
2022/05/10 10:31:00;;;;;;;2.30;1.70;;;22.90;48.50;;;;;;5024620;28;20110;-65
2022/05/10 10:33:40;;;;;;;1.92;1.50;;;22.90;48.50;;;;;;5021236;28;20113;-65
2022/05/10 10:36:14;;;;;;;2.10;1.58;;;22.90;48.50;;;;;;5024591;28;20029;-66
2022/05/10 10:38:46;;;;;;;2.17;1.67;;;22.90;48.50;;;;;;5016735;28;20415;-60
2022/05/10 10:41:18;;;;;;;1.70;1.40;;;22.90;48.50;;;;;;5023902;28;20021;-64
2022/05/10 10:43:54;;;;;;;2.72;1.83;;;22.80;48.60;;;;;;5031334;28;20040;-65
2022/05/10 10:46:32;;;;;;;2.20;1.80;;;22.90;48.70;;;;;;5022850;28;20219;-66
2022/05/10 10:49:21;;;;;;;2.78;1.70;;;22.90;48.70;;;;;;5022424;28;20131;-65
2022/05/10 10:51:49;;;;;;;2.30;1.80;;;22.90;48.70;;;;;;5019486;28;20358;-61
2022/05/10 10:54:22;;;;;;;2.00;1.75;;;22.90;48.70;;;;;;5021971;28;20022;-65
2022/05/10 10:57:10;;;;;;;2.45;1.95;;;22.90;48.70;;;;;;5020717;28;20585;-64
2022/05/10 11:00:03;;;;;;;2.40;1.90;;;22.90;48.60;;;;;;5022801;28;20127;-64
2022/05/10 11:03:07;;;;;;;2.60;1.77;;;22.90;48.70;;;;;;5020243;28;20067;-66
2022/05/10 11:05:51;;;;;;;2.63;1.70;;;22.90;48.70;;;;;;5020426;28;20025;-66
2022/05/10 11:08:25;;;;;;;2.38;1.65;;;22.90;48.70;;;;;;5019357;28;20113;-64
2022/05/10 11:10:59;;;;;;;2.40;1.83;;;22.90;48.70;;;;;;5022615;28;20037;-65
2022/05/10 11:13:50;;;;;;;2.58;1.90;;;22.90;48.60;;;;;;5023890;28;20021;-61
2022/05/10 11:16:28;;;;;;;2.22;1.65;;;22.90;48.70;;;;;;5002238;28;20033;-64
2022/05/10 11:19:14;;;;;;;2.00;1.60;;;22.90;48.70;;;;;;5019707;28;20068;-65
2022/05/10 11:21:59;;;;;;;2.38;1.80;;;22.90;48.60;;;;;;5020108;28;20056;-64
2022/05/10 11:24:44;;;;;;;2.40;1.80;;;22.90;48.60;;;;;;5020194;28;21814;-66
2022/05/10 11:27:18;;;;;;;2.70;1.92;;;22.90;48.60;;;;;;5022073;28;20147;-66
2022/05/10 11:29:52;;;;;;;2.35;1.63;;;22.90;48.60;;;;;;5019791;28;20408;-66
2022/05/10 11:32:32;;;;;;;2.42;1.88;;;22.90;48.50;;;;;;5022041;28;20165;-66
2022/05/10 11:35:16;;;;;;;2.10;1.75;;;22.90;48.50;;;;;;5018885;28;20033;-65
2022/05/10 11:37:59;;;;;;;2.70;1.80;;;22.90;48.50;;;;;;5020727;28;20037;-64
2022/05/10 11:40:33;;;;;;;2.20;1.60;;;22.90;48.50;;;;;;5017702;28;20025;-64
2022/05/10 11:43:04;;;;;;;2.10;1.70;;;22.90;48.40;;;;;;5018580;28;20157;-61
2022/05/10 11:45:58;;;;;;;2.78;1.98;;;22.90;48.40;;;;;;5017921;28;20108;-65
2022/05/10 11:48:50;;;;;;;2.70;2.00;;;22.90;48.30;;;;;;5016744;28;20029;-65
2022/05/10 11:51:42;;;;;;;2.35;1.75;;;22.90;48.30;;;;;;5016203;28;20635;-65
2022/05/10 11:54:25;;;;;;;1.88;1.67;;;22.90;48.30;;;;;;5017369;28;20025;-66
2022/05/10 11:56:54;;;;;;;2.15;1.88;;;22.90;48.30;;;;;;5014601;28;20140;-65
2022/05/10 11:59:27;;;;;;;2.40;1.83;;;22.90;48.30;;;;;;5015275;28;20140;-65
2022/05/10 12:01:53;;;;;;;2.70;1.90;;;22.90;48.20;;;;;;5016341;28;20191;-65
2022/05/10 12:04:36;;;;;;;2.45;1.77;;;22.90;48.20;;;;;;5012728;28;20071;-65
2022/05/10 12:07:19;;;;;;;2.20;1.45;;;22.90;48.10;;;;;;5019072;28;20381;-65
2022/05/10 12:09:51;;;;;;;2.85;1.80;;;22.90;48.10;;;;;;5019594;28;20040;-65
2022/05/10 12:12:32;;;;;;;2.35;1.65;;;22.90;48.10;;;;;;5018646;28;20033;-64
2022/05/10 12:21:30;;;;;;;2.70;1.83;;;22.90;48.70;;;;;;5002430;28;20036;-64
2022/05/10 12:24:06;;;;;;;2.40;1.70;;;23.00;48.30;;;;;;5018428;28;20037;-63
2022/05/10 12:26:51;;;;;;;2.35;1.63;;;22.90;48.30;;;;;;5018005;28;20133;-64
2022/05/10 12:29:38;;;;;;;2.20;1.70;;;23.00;48.30;;;;;;5014528;28;20037;-65
2022/05/10 12:32:34;;;;;;;3.13;1.92;;;23.00;48.50;;;;;;5020541;28;20037;-66
2022/05/10 12:35:02;;;;;;;2.28;1.90;;;23.00;48.60;;;;;;5018366;28;20025;-65
2022/05/10 12:37:28;;;;;;;2.47;1.90;;;23.00;48.50;;;;;;5021157;28;20029;-65
2022/05/10 12:39:58;;;;;;;2.55;1.88;;;23.00;48.40;;;;;;5017488;28;20033;-65
2022/05/10 12:42:51;;;;;;;3.80;1.73;;;23.00;48.40;;;;;;5020051;28;20680;-65
2022/05/10 12:45:32;;;;;;;2.15;1.70;;;23.00;48.30;;;;;;5018132;28;20056;-65
2022/05/10 12:48:10;;;;;;;2.85;1.80;;;23.00;48.30;;;;;;5019252;28;20037;-65
2022/05/10 12:50:53;;;;;;;1.98;1.65;;;23.00;48.30;;;;;;5016908;28;20240;-61
2022/05/10 12:53:26;;;;;;;2.42;1.63;;;23.00;48.40;;;;;;5018925;28;20025;-65
2022/05/10 12:56:01;;;;;;;3.00;1.83;;;23.00;48.40;;;;;;5017951;28;20064;-65
2022/05/10 12:58:31;;;;;;;2.40;1.65;;;23.00;48.40;;;;;;5020262;28;20025;-64
2022/05/10 13:01:01;;;;;;;2.35;1.67;;;23.10;48.50;;;;;;5018959;28;20120;-64
2022/05/10 13:03:41;;;;;;;2.40;1.75;;;23.10;48.50;;;;;;5018480;28;20040;-65
2022/05/10 13:06:33;;;;;;;2.35;1.80;;;23.00;48.50;;;;;;5017068;28;20028;-64
2022/05/10 13:09:20;;;;;;;2.35;1.70;;;23.10;48.50;;;;;;5021471;28;20025;-66
2022/05/10 13:11:57;;;;;;;2.78;2.00;;;23.10;48.50;;;;;;5020272;28;20044;-65
2022/05/10 13:14:24;;;;;;;2.38;1.92;;;23.10;48.50;;;;;;5018520;28;20032;-65
2022/05/10 13:16:51;;;;;;;2.25;1.80;;;23.10;48.50;;;;;;5019065;28;20079;-64
2022/05/10 13:19:20;;;;;;;2.50;1.83;;;23.10;48.50;;;;;;5016792;28;20025;-67
2022/05/10 13:21:46;;;;;;;2.72;1.98;;;23.10;48.50;;;;;;5021450;28;20137;-63
2022/05/10 13:24:15;;;;;;;2.40;1.90;;;23.10;48.50;;;;;;5019666;28;20040;-67